Airfield :
LOGIN :

Register | Disclaimer

   EN    FR    IT 

 










Legend :    VFR   Marginal VFR   IFR   Intensive IFR   Very Intensive IFR
Visi :
Ceiling :
>= 8 km
>= 3000ft
5 to 8 km
1000 to 3000 ft
1500m to 5 km
500 to 1000 ft
800 to 1500m
200 to 500 ft
< 800m
< 200 ft
Symbols :   Thunderstorms  Fog  Heavy snow  Heavy precipitations  Wind > 20 kt
SIGMETs :     Misc.  Thunderstorms  Icing  Turbulence  Mountain Waves  Volcanic Ashes







- Airport Elevation : 195 ft
- Download approach charts


LFMY - Salon de Provence

CURRENT METAR :
  • 212000Z AUTO 00000KT CAVOK 12/07 Q1011

EXPIRED METARs :
  • 211930Z AUTO 00000KT CAVOK 13/07 Q1011
  • 211900Z AUTO 00000KT CAVOK 15/07 Q1011
  • 211830Z AUTO VRB03KT 9999 NSC 16/07 Q1011
  • 211800Z AUTO 34004KT CAVOK 17/08 Q1012
  • 211730Z AUTO 35002KT CAVOK 17/09 Q1012
  • 211700Z AUTO 00000KT CAVOK 18/09 Q1012

TAF TAF LFMY
Valid from the 21 at 09:00 until the 22 at 09:00 UTC


210800Z 2109/2209 VRB02KT CAVOK
BECMG 2109/2111 12010KT
BECMG 2122/2124 VRB02KT
No reported NOTAMs for that airfield.
2 SIGMETs reported for the Marseille FIR (LFMM) :
 
Severe turbulence
LFMM SIGMET 8 VALID 212000/220000 LFPW
LFMM MARSEILLE FIR/UIR SEV TURB FCST WI N4430 E00700 - N4400 E00700 - N4315 E00945 - N4115 E00945 - N4115 E00800 - N4245 E00800 - N4245 E00545 - N4430 E00700 SFC/FL080 STNR NC=
Severe turbulence
LFMM SIGMET 7 VALID 211600/212000 LFPW
LFMM MARSEILLE FIR/UIR SEV TURB FCST WI N4430 E00700 - N4400 E00700 - N4315 E00945 - N4115 E00945 - N4115 E00800 - N4245 E00830 - N4245 E00545 - N4430 E00615 - N4430 E00700 SFC/FL080 STNR NC=



MET'MAP, your aeronautical weather chart ! - Copyright ORBIFLY December 2007 - Disclaimer

ORBIFLY MET'MAP TEAM :

Programming & Development : Alexandra Zaïnal
Concept & Development : Baudouin d'Aumeries
Co-Development & Prog : Marc-Olivier Méhu
Technical & hardware support : Manuel Goepfert

Contact : metmap@orbifly.com




SOURCES & CREDITS :

   NOAA